sensor_id;sensor_type;location;lat;lon;timestamp;temperature;humidity
68648;SHT31;55632;51.962;16.116;2023-04-06T00:01:52;-1.76;70.58
68648;SHT31;55632;51.962;16.116;2023-04-06T00:06:52;-1.77;70.62
68648;SHT31;55632;51.962;16.116;2023-04-06T00:11:59;-1.82;70.62
68648;SHT31;55632;51.962;16.116;2023-04-06T00:17:03;-1.91;70.75
68648;SHT31;55632;51.962;16.116;2023-04-06T00:22:03;-1.94;70.88
68648;SHT31;55632;51.962;16.116;2023-04-06T00:27:04;-1.98;71.03
68648;SHT31;55632;51.962;16.116;2023-04-06T00:32:06;-2.05;71.13
68648;SHT31;55632;51.962;16.116;2023-04-06T00:37:14;-2.10;71.31
68648;SHT31;55632;51.962;16.116;2023-04-06T00:42:17;-2.12;71.47
68648;SHT31;55632;51.962;16.116;2023-04-06T00:47:26;-2.15;71.59
68648;SHT31;55632;51.962;16.116;2023-04-06T00:52:29;-2.22;71.61
68648;SHT31;55632;51.962;16.116;2023-04-06T00:57:31;-2.31;71.78
68648;SHT31;55632;51.962;16.116;2023-04-06T01:02:35;-2.36;71.98
68648;SHT31;55632;51.962;16.116;2023-04-06T01:07:39;-2.42;72.20
68648;SHT31;55632;51.962;16.116;2023-04-06T01:12:45;-2.46;72.41
68648;SHT31;55632;51.962;16.116;2023-04-06T01:17:54;-2.48;72.62
68648;SHT31;55632;51.962;16.116;2023-04-06T01:22:55;-2.53;72.86
68648;SHT31;55632;51.962;16.116;2023-04-06T01:27:56;-2.54;72.80
68648;SHT31;55632;51.962;16.116;2023-04-06T01:33:18;-2.54;72.89
68648;SHT31;55632;51.962;16.116;2023-04-06T01:38:38;-2.59;72.92
68648;SHT31;55632;51.962;16.116;2023-04-06T01:43:43;-2.62;72.98
68648;SHT31;55632;51.962;16.116;2023-04-06T01:48:51;-2.67;73.00
68648;SHT31;55632;51.962;16.116;2023-04-06T01:54:17;-2.73;73.19
68648;SHT31;55632;51.962;16.116;2023-04-06T01:59:44;-2.71;73.32
68648;SHT31;55632;51.962;16.116;2023-04-06T02:04:54;-2.76;73.41
68648;SHT31;55632;51.962;16.116;2023-04-06T02:09:55;-2.80;73.56
68648;SHT31;55632;51.962;16.116;2023-04-06T02:15:01;-2.83;73.54
68648;SHT31;55632;51.962;16.116;2023-04-06T02:20:05;-2.87;73.62
68648;SHT31;55632;51.962;16.116;2023-04-06T02:25:09;-2.89;73.63
68648;SHT31;55632;51.962;16.116;2023-04-06T02:30:10;-2.91;73.62
68648;SHT31;55632;51.962;16.116;2023-04-06T02:35:11;-2.94;73.59
68648;SHT31;55632;51.962;16.116;2023-04-06T02:40:14;-2.97;73.64
68648;SHT31;55632;51.962;16.116;2023-04-06T02:45:15;-3.01;73.65
68648;SHT31;55632;51.962;16.116;2023-04-06T02:50:20;-3.06;73.80
68648;SHT31;55632;51.962;16.116;2023-04-06T02:55:29;-3.13;73.98
68648;SHT31;55632;51.962;16.116;2023-04-06T03:00:31;-3.22;74.11
68648;SHT31;55632;51.962;16.116;2023-04-06T03:05:32;-3.25;74.32
68648;SHT31;55632;51.962;16.116;2023-04-06T03:10:34;-3.23;74.32
68648;SHT31;55632;51.962;16.116;2023-04-06T03:15:35;-3.26;74.19
68648;SHT31;55632;51.962;16.116;2023-04-06T03:20:46;-3.39;74.21
68648;SHT31;55632;51.962;16.116;2023-04-06T03:25:50;-3.44;74.44
68648;SHT31;55632;51.962;16.116;2023-04-06T03:30:54;-3.56;74.77
68648;SHT31;55632;51.962;16.116;2023-04-06T03:36:30;-3.57;74.94
68648;SHT31;55632;51.962;16.116;2023-04-06T03:41:33;-3.57;75.15
68648;SHT31;55632;51.962;16.116;2023-04-06T03:46:39;-3.56;75.20
68648;SHT31;55632;51.962;16.116;2023-04-06T03:51:41;-3.56;75.21
68648;SHT31;55632;51.962;16.116;2023-04-06T03:56:42;-3.59;75.18
68648;SHT31;55632;51.962;16.116;2023-04-06T04:01:43;-3.56;75.21
68648;SHT31;55632;51.962;16.116;2023-04-06T04:06:44;-3.60;75.22
68648;SHT31;55632;51.962;16.116;2023-04-06T04:11:45;-3.61;75.10
68648;SHT31;55632;51.962;16.116;2023-04-06T04:16:46;-3.68;75.27
68648;SHT31;55632;51.962;16.116;2023-04-06T04:21:47;-3.70;75.37
68648;SHT31;55632;51.962;16.116;2023-04-06T04:26:52;-3.71;75.37
68648;SHT31;55632;51.962;16.116;2023-04-06T04:31:54;-3.74;75.44
68648;SHT31;55632;51.962;16.116;2023-04-06T04:36:55;-3.77;75.34
68648;SHT31;55632;51.962;16.116;2023-04-06T04:42:08;-3.74;75.74
68648;SHT31;55632;51.962;16.116;2023-04-06T04:47:14;-3.56;75.92
68648;SHT31;55632;51.962;16.116;2023-04-06T04:52:19;-3.32;75.95
68648;SHT31;55632;51.962;16.116;2023-04-06T04:57:29;-3.13;75.85
68648;SHT31;55632;51.962;16.116;2023-04-06T05:02:30;-3.04;75.81
68648;SHT31;55632;51.962;16.116;2023-04-06T05:07:45;-2.99;75.79
68648;SHT31;55632;51.962;16.116;2023-04-06T05:12:55;-2.83;76.08
68648;SHT31;55632;51.962;16.116;2023-04-06T05:17:56;-2.48;76.25
68648;SHT31;55632;51.962;16.116;2023-04-06T05:23:04;-2.11;76.01
68648;SHT31;55632;51.962;16.116;2023-04-06T05:28:05;-1.77;75.86
68648;SHT31;55632;51.962;16.116;2023-04-06T05:33:10;-1.45;75.73
68648;SHT31;55632;51.962;16.116;2023-04-06T05:38:41;-1.13;75.43
68648;SHT31;55632;51.962;16.116;2023-04-06T05:43:55;-0.85;75.04
68648;SHT31;55632;51.962;16.116;2023-04-06T05:48:58;-0.65;74.68
68648;SHT31;55632;51.962;16.116;2023-04-06T05:54:03;-0.38;74.48
68648;SHT31;55632;51.962;16.116;2023-04-06T05:59:05;-0.17;74.35
68648;SHT31;55632;51.962;16.116;2023-04-06T06:04:06;0.05;74.48
68648;SHT31;55632;51.962;16.116;2023-04-06T06:09:10;0.30;74.16
68648;SHT31;55632;51.962;16.116;2023-04-06T06:14:17;0.53;74.04
68648;SHT31;55632;51.962;16.116;2023-04-06T06:19:18;0.81;73.92
68648;SHT31;55632;51.962;16.116;2023-04-06T06:24:20;1.07;73.73
68648;SHT31;55632;51.962;16.116;2023-04-06T06:29:22;1.28;73.47
68648;SHT31;55632;51.962;16.116;2023-04-06T06:34:24;1.51;73.12
68648;SHT31;55632;51.962;16.116;2023-04-06T06:39:28;1.78;72.92
68648;SHT31;55632;51.962;16.116;2023-04-06T06:44:28;2.04;72.76
68648;SHT31;55632;51.962;16.116;2023-04-06T06:49:29;2.30;72.04
68648;SHT31;55632;51.962;16.116;2023-04-06T06:54:31;2.51;71.51
68648;SHT31;55632;51.962;16.116;2023-04-06T06:59:32;2.71;71.06
68648;SHT31;55632;51.962;16.116;2023-04-06T07:04:34;2.88;70.75
68648;SHT31;55632;51.962;16.116;2023-04-06T07:09:35;3.13;70.41
68648;SHT31;55632;51.962;16.116;2023-04-06T07:14:36;3.41;70.18
68648;SHT31;55632;51.962;16.116;2023-04-06T07:19:38;3.64;69.76
68648;SHT31;55632;51.962;16.116;2023-04-06T07:24:40;3.86;69.63
68648;SHT31;55632;51.962;16.116;2023-04-06T07:29:41;4.11;69.16
68648;SHT31;55632;51.962;16.116;2023-04-06T07:34:46;4.31;68.74
68648;SHT31;55632;51.962;16.116;2023-04-06T07:39:50;4.54;68.41
68648;SHT31;55632;51.962;16.116;2023-04-06T07:44:54;4.71;68.04
68648;SHT31;55632;51.962;16.116;2023-04-06T07:49:58;4.92;67.75
68648;SHT31;55632;51.962;16.116;2023-04-06T07:55:10;5.14;67.21
68648;SHT31;55632;51.962;16.116;2023-04-06T08:00:14;5.35;66.77
68648;SHT31;55632;51.962;16.116;2023-04-06T08:05:15;5.52;66.50
68648;SHT31;55632;51.962;16.116;2023-04-06T08:10:16;5.73;66.10
68648;SHT31;55632;51.962;16.116;2023-04-06T08:15:17;5.93;65.75
68648;SHT31;55632;51.962;16.116;2023-04-06T08:20:20;6.07;65.12
68648;SHT31;55632;51.962;16.116;2023-04-06T08:25:21;6.26;64.26
68648;SHT31;55632;51.962;16.116;2023-04-06T08:30:22;6.41;63.46
68648;SHT31;55632;51.962;16.116;2023-04-06T08:35:23;6.53;62.45
68648;SHT31;55632;51.962;16.116;2023-04-06T08:40:23;6.65;60.51
68648;SHT31;55632;51.962;16.116;2023-04-06T08:45:24;6.76;60.55
68648;SHT31;55632;51.962;16.116;2023-04-06T08:50:26;6.94;59.93
68648;SHT31;55632;51.962;16.116;2023-04-06T08:55:27;7.08;58.75
68648;SHT31;55632;51.962;16.116;2023-04-06T09:00:28;7.21;57.80
68648;SHT31;55632;51.962;16.116;2023-04-06T09:05:33;7.33;57.50
68648;SHT31;55632;51.962;16.116;2023-04-06T09:10:34;7.45;54.72
68648;SHT31;55632;51.962;16.116;2023-04-06T09:15:35;7.53;53.78
68648;SHT31;55632;51.962;16.116;2023-04-06T09:20:36;7.66;52.95
68648;SHT31;55632;51.962;16.116;2023-04-06T09:25:37;7.74;51.50
68648;SHT31;55632;51.962;16.116;2023-04-06T09:30:48;7.85;51.09
68648;SHT31;55632;51.962;16.116;2023-04-06T09:35:49;7.92;49.60
68648;SHT31;55632;51.962;16.116;2023-04-06T09:40:51;7.92;48.12
68648;SHT31;55632;51.962;16.116;2023-04-06T09:45:52;7.91;46.84
68648;SHT31;55632;51.962;16.116;2023-04-06T09:50:59;7.91;46.19
68648;SHT31;55632;51.962;16.116;2023-04-06T09:56:05;7.90;44.83
68648;SHT31;55632;51.962;16.116;2023-04-06T10:01:13;7.88;45.42
68648;SHT31;55632;51.962;16.116;2023-04-06T10:06:23;7.99;45.02
68648;SHT31;55632;51.962;16.116;2023-04-06T10:11:25;8.03;44.99
68648;SHT31;55632;51.962;16.116;2023-04-06T10:16:27;8.15;44.77
68648;SHT31;55632;51.962;16.116;2023-04-06T10:21:31;8.18;44.96
68648;SHT31;55632;51.962;16.116;2023-04-06T10:26:35;8.21;44.64
68648;SHT31;55632;51.962;16.116;2023-04-06T10:31:42;8.35;44.48
68648;SHT31;55632;51.962;16.116;2023-04-06T10:36:43;8.42;44.13
68648;SHT31;55632;51.962;16.116;2023-04-06T10:41:47;8.50;44.26
68648;SHT31;55632;51.962;16.116;2023-04-06T10:46:56;8.63;44.13
68648;SHT31;55632;51.962;16.116;2023-04-06T10:51:58;8.67;43.70
68648;SHT31;55632;51.962;16.116;2023-04-06T10:57:01;8.63;43.20
68648;SHT31;55632;51.962;16.116;2023-04-06T11:02:04;8.67;43.12
68648;SHT31;55632;51.962;16.116;2023-04-06T11:07:05;8.78;43.44
68648;SHT31;55632;51.962;16.116;2023-04-06T11:12:06;8.87;43.19
68648;SHT31;55632;51.962;16.116;2023-04-06T11:17:07;8.92;42.69
68648;SHT31;55632;51.962;16.116;2023-04-06T11:22:09;9.02;42.45
68648;SHT31;55632;51.962;16.116;2023-04-06T11:27:10;8.95;41.46
68648;SHT31;55632;51.962;16.116;2023-04-06T11:32:11;8.82;41.59
68648;SHT31;55632;51.962;16.116;2023-04-06T11:37:20;8.82;41.72
68648;SHT31;55632;51.962;16.116;2023-04-06T11:42:22;8.89;42.03
68648;SHT31;55632;51.962;16.116;2023-04-06T11:47:35;9.05;42.01
68648;SHT31;55632;51.962;16.116;2023-04-06T11:52:40;9.12;42.10
68648;SHT31;55632;51.962;16.116;2023-04-06T11:57:42;9.13;41.57
68648;SHT31;55632;51.962;16.116;2023-04-06T12:02:47;9.16;41.64
68648;SHT31;55632;51.962;16.116;2023-04-06T12:07:49;9.24;41.42
68648;SHT31;55632;51.962;16.116;2023-04-06T12:12:50;9.20;41.05
68648;SHT31;55632;51.962;16.116;2023-04-06T12:17:51;9.12;41.14
68648;SHT31;55632;51.962;16.116;2023-04-06T12:22:55;9.20;41.24
68648;SHT31;55632;51.962;16.116;2023-04-06T12:27:55;9.37;41.07
68648;SHT31;55632;51.962;16.116;2023-04-06T12:33:00;9.54;41.45
68648;SHT31;55632;51.962;16.116;2023-04-06T12:38:02;9.59;41.46
68648;SHT31;55632;51.962;16.116;2023-04-06T12:43:04;9.46;41.79
68648;SHT31;55632;51.962;16.116;2023-04-06T12:48:05;9.30;41.98
68648;SHT31;55632;51.962;16.116;2023-04-06T12:53:06;9.36;42.50
68648;SHT31;55632;51.962;16.116;2023-04-06T12:58:07;9.48;41.04
68648;SHT31;55632;51.962;16.116;2023-04-06T13:03:11;9.54;41.08
68648;SHT31;55632;51.962;16.116;2023-04-06T13:08:13;9.48;40.73
68648;SHT31;55632;51.962;16.116;2023-04-06T13:13:15;9.44;40.58
68648;SHT31;55632;51.962;16.116;2023-04-06T13:18:19;9.43;40.46
68648;SHT31;55632;51.962;16.116;2023-04-06T13:23:23;9.40;40.59
68648;SHT31;55632;51.962;16.116;2023-04-06T13:28:24;9.50;41.26
68648;SHT31;55632;51.962;16.116;2023-04-06T13:33:26;9.70;41.27
68648;SHT31;55632;51.962;16.116;2023-04-06T13:38:29;9.79;40.36
68648;SHT31;55632;51.962;16.116;2023-04-06T13:43:31;9.79;40.57
68648;SHT31;55632;51.962;16.116;2023-04-06T13:48:33;9.78;40.60
68648;SHT31;55632;51.962;16.116;2023-04-06T13:53:34;9.74;40.50
68648;SHT31;55632;51.962;16.116;2023-04-06T13:58:37;9.70;40.05
68648;SHT31;55632;51.962;16.116;2023-04-06T14:03:38;9.67;40.12
68648;SHT31;55632;51.962;16.116;2023-04-06T14:08:42;9.70;40.02
68648;SHT31;55632;51.962;16.116;2023-04-06T14:13:43;9.73;39.87
68648;SHT31;55632;51.962;16.116;2023-04-06T14:18:44;9.71;39.91
68648;SHT31;55632;51.962;16.116;2023-04-06T14:23:47;9.70;39.15
68648;SHT31;55632;51.962;16.116;2023-04-06T14:28:51;9.67;40.06
68648;SHT31;55632;51.962;16.116;2023-04-06T14:33:52;9.71;40.10
68648;SHT31;55632;51.962;16.116;2023-04-06T14:38:53;9.74;40.23
68648;SHT31;55632;51.962;16.116;2023-04-06T14:43:54;9.74;39.34
68648;SHT31;55632;51.962;16.116;2023-04-06T14:48:56;9.73;39.45
68648;SHT31;55632;51.962;16.116;2023-04-06T14:54:00;9.70;38.74
68648;SHT31;55632;51.962;16.116;2023-04-06T14:59:00;9.59;38.72
68648;SHT31;55632;51.962;16.116;2023-04-06T15:04:03;9.58;39.57
68648;SHT31;55632;51.962;16.116;2023-04-06T15:09:04;9.59;39.66
68648;SHT31;55632;51.962;16.116;2023-04-06T15:14:05;9.58;39.19
68648;SHT31;55632;51.962;16.116;2023-04-06T15:19:09;9.51;39.35
68648;SHT31;55632;51.962;16.116;2023-04-06T15:24:11;9.51;39.62
68648;SHT31;55632;51.962;16.116;2023-04-06T15:29:12;9.52;39.70
68648;SHT31;55632;51.962;16.116;2023-04-06T15:34:12;9.48;39.16
68648;SHT31;55632;51.962;16.116;2023-04-06T15:39:18;9.47;39.20
68648;SHT31;55632;51.962;16.116;2023-04-06T15:44:19;9.41;39.78
68648;SHT31;55632;51.962;16.116;2023-04-06T15:49:20;9.40;39.73
68648;SHT31;55632;51.962;16.116;2023-04-06T15:54:20;9.34;39.71
68648;SHT31;55632;51.962;16.116;2023-04-06T15:59:21;9.29;39.96
68648;SHT31;55632;51.962;16.116;2023-04-06T16:04:23;9.20;40.36
68648;SHT31;55632;51.962;16.116;2023-04-06T16:09:26;9.13;40.51
68648;SHT31;55632;51.962;16.116;2023-04-06T16:14:27;9.08;40.58
68648;SHT31;55632;51.962;16.116;2023-04-06T16:19:28;8.96;41.28
68648;SHT31;55632;51.962;16.116;2023-04-06T16:24:29;8.92;42.34
68648;SHT31;55632;51.962;16.116;2023-04-06T16:29:30;8.88;43.01
68648;SHT31;55632;51.962;16.116;2023-04-06T16:34:32;8.84;43.25
68648;SHT31;55632;51.962;16.116;2023-04-06T16:39:35;8.79;43.34
68648;SHT31;55632;51.962;16.116;2023-04-06T16:44:36;8.71;43.56
68648;SHT31;55632;51.962;16.116;2023-04-06T16:49:36;8.63;44.08
68648;SHT31;55632;51.962;16.116;2023-04-06T16:54:37;8.54;44.65
68648;SHT31;55632;51.962;16.116;2023-04-06T16:59:38;8.44;45.24
68648;SHT31;55632;51.962;16.116;2023-04-06T17:04:39;8.33;45.63
68648;SHT31;55632;51.962;16.116;2023-04-06T17:09:40;8.26;45.88
68648;SHT31;55632;51.962;16.116;2023-04-06T17:14:42;8.10;46.20
68648;SHT31;55632;51.962;16.116;2023-04-06T17:19:43;7.99;46.62
68648;SHT31;55632;51.962;16.116;2023-04-06T17:24:44;7.90;47.27
68648;SHT31;55632;51.962;16.116;2023-04-06T17:29:46;7.75;47.45
68648;SHT31;55632;51.962;16.116;2023-04-06T17:34:46;7.59;47.30
68648;SHT31;55632;51.962;16.116;2023-04-06T17:39:47;7.49;47.40
68648;SHT31;55632;51.962;16.116;2023-04-06T17:44:48;7.32;47.85
68648;SHT31;55632;51.962;16.116;2023-04-06T17:49:50;7.18;48.33
68648;SHT31;55632;51.962;16.116;2023-04-06T17:54:51;7.05;48.93
68648;SHT31;55632;51.962;16.116;2023-04-06T17:59:52;6.87;49.66
68648;SHT31;55632;51.962;16.116;2023-04-06T18:04:53;6.67;50.73
68648;SHT31;55632;51.962;16.116;2023-04-06T18:09:54;6.48;51.62
68648;SHT31;55632;51.962;16.116;2023-04-06T18:14:56;6.24;52.62
68648;SHT31;55632;51.962;16.116;2023-04-06T18:19:57;6.00;53.34
68648;SHT31;55632;51.962;16.116;2023-04-06T18:24:58;5.79;53.81
68648;SHT31;55632;51.962;16.116;2023-04-06T18:30:02;5.66;54.30
68648;SHT31;55632;51.962;16.116;2023-04-06T18:35:03;5.48;54.88
68648;SHT31;55632;51.962;16.116;2023-04-06T18:40:05;5.32;55.28
68648;SHT31;55632;51.962;16.116;2023-04-06T18:45:08;5.17;55.83
68648;SHT31;55632;51.962;16.116;2023-04-06T18:50:09;5.03;56.62
68648;SHT31;55632;51.962;16.116;2023-04-06T18:55:10;4.83;57.22
68648;SHT31;55632;51.962;16.116;2023-04-06T19:00:11;4.69;57.63
68648;SHT31;55632;51.962;16.116;2023-04-06T19:05:13;4.54;58.13
68648;SHT31;55632;51.962;16.116;2023-04-06T19:10:14;4.38;58.42
68648;SHT31;55632;51.962;16.116;2023-04-06T19:15:16;4.20;58.73
68648;SHT31;55632;51.962;16.116;2023-04-06T19:20:17;4.05;59.03
68648;SHT31;55632;51.962;16.116;2023-04-06T19:25:18;3.93;59.29
68648;SHT31;55632;51.962;16.116;2023-04-06T19:30:19;3.77;59.92
68648;SHT31;55632;51.962;16.116;2023-04-06T19:35:20;3.67;60.12
68648;SHT31;55632;51.962;16.116;2023-04-06T19:40:20;3.53;60.77
68648;SHT31;55632;51.962;16.116;2023-04-06T19:45:24;3.43;60.93
68648;SHT31;55632;51.962;16.116;2023-04-06T19:50:25;3.31;61.54
68648;SHT31;55632;51.962;16.116;2023-04-06T19:55:25;3.24;61.62
68648;SHT31;55632;51.962;16.116;2023-04-06T20:00:26;3.17;62.28
68648;SHT31;55632;51.962;16.116;2023-04-06T20:05:27;3.10;62.35
68648;SHT31;55632;51.962;16.116;2023-04-06T20:10:31;3.05;62.78
68648;SHT31;55632;51.962;16.116;2023-04-06T20:15:32;2.98;63.11
68648;SHT31;55632;51.962;16.116;2023-04-06T20:20:33;2.88;63.65
68648;SHT31;55632;51.962;16.116;2023-04-06T20:25:39;2.82;63.63
68648;SHT31;55632;51.962;16.116;2023-04-06T20:30:50;2.77;63.84
68648;SHT31;55632;51.962;16.116;2023-04-06T20:35:58;2.70;64.03
68648;SHT31;55632;51.962;16.116;2023-04-06T20:40:59;2.65;64.22
68648;SHT31;55632;51.962;16.116;2023-04-06T20:46:01;2.61;64.48
68648;SHT31;55632;51.962;16.116;2023-04-06T20:51:02;2.57;64.94
68648;SHT31;55632;51.962;16.116;2023-04-06T20:56:04;2.58;64.91
68648;SHT31;55632;51.962;16.116;2023-04-06T21:01:10;2.53;65.24
68648;SHT31;55632;51.962;16.116;2023-04-06T21:06:11;2.57;65.08
68648;SHT31;55632;51.962;16.116;2023-04-06T21:11:12;2.53;65.16
68648;SHT31;55632;51.962;16.116;2023-04-06T21:16:13;2.51;65.42
68648;SHT31;55632;51.962;16.116;2023-04-06T21:21:14;2.54;65.28
68648;SHT31;55632;51.962;16.116;2023-04-06T21:26:15;2.54;65.55
68648;SHT31;55632;51.962;16.116;2023-04-06T21:31:17;2.60;65.36
68648;SHT31;55632;51.962;16.116;2023-04-06T21:36:19;2.61;65.54
68648;SHT31;55632;51.962;16.116;2023-04-06T21:41:23;2.64;65.94
68648;SHT31;55632;51.962;16.116;2023-04-06T21:46:27;2.61;66.23
68648;SHT31;55632;51.962;16.116;2023-04-06T21:51:27;2.58;66.50
68648;SHT31;55632;51.962;16.116;2023-04-06T21:56:31;2.64;66.33
68648;SHT31;55632;51.962;16.116;2023-04-06T22:01:35;2.64;66.52
68648;SHT31;55632;51.962;16.116;2023-04-06T22:06:36;2.68;66.66
68648;SHT31;55632;51.962;16.116;2023-04-06T22:11:37;2.68;66.80
68648;SHT31;55632;51.962;16.116;2023-04-06T22:16:43;2.65;66.45
68648;SHT31;55632;51.962;16.116;2023-04-06T22:21:44;2.67;66.52
68648;SHT31;55632;51.962;16.116;2023-04-06T22:26:45;2.65;66.49
68648;SHT31;55632;51.962;16.116;2023-04-06T22:31:46;2.65;66.63
68648;SHT31;55632;51.962;16.116;2023-04-06T22:36:46;2.68;66.45
68648;SHT31;55632;51.962;16.116;2023-04-06T22:41:47;2.67;66.64
68648;SHT31;55632;51.962;16.116;2023-04-06T22:46:48;2.70;66.54
68648;SHT31;55632;51.962;16.116;2023-04-06T22:51:48;2.71;66.82
68648;SHT31;55632;51.962;16.116;2023-04-06T22:56:53;2.73;66.78
68648;SHT31;55632;51.962;16.116;2023-04-06T23:01:57;2.75;66.93
68648;SHT31;55632;51.962;16.116;2023-04-06T23:07:03;2.77;67.10
68648;SHT31;55632;51.962;16.116;2023-04-06T23:12:10;2.82;67.26
68648;SHT31;55632;51.962;16.116;2023-04-06T23:17:11;2.85;67.41
68648;SHT31;55632;51.962;16.116;2023-04-06T23:22:12;2.88;67.56
68648;SHT31;55632;51.962;16.116;2023-04-06T23:27:12;2.89;67.80
68648;SHT31;55632;51.962;16.116;2023-04-06T23:32:13;2.96;67.57
68648;SHT31;55632;51.962;16.116;2023-04-06T23:37:14;2.99;67.73
68648;SHT31;55632;51.962;16.116;2023-04-06T23:42:18;3.02;67.76
68648;SHT31;55632;51.962;16.116;2023-04-06T23:47:19;3.02;68.23
68648;SHT31;55632;51.962;16.116;2023-04-06T23:52:24;3.03;68.50
68648;SHT31;55632;51.962;16.116;2023-04-06T23:57:24;3.00;68.86
